Portada
METAR-TAF:

METAR-TAF

Aeroports :

São José do Rio Preto, São Paulo, Brasil

latitud: 20-48-58S, longitud: 049-24-17W, altitud: 543 m

Observació

L'informe es va fer fa 51 minuts, a les 22:00 UTC
Vent 5 kt del Sud
Temperatura 25°C
Humitat 32%
Pressió 1020 hPa
Visibilitat 10 km o més
sense núvols per sota de 1500 mi sense presència de cumulonimbus.

METAR: SBSR 242200Z 18005KT CAVOK 25/07 Q1020

Hora: 19:51 (22:51 UTC)


TAF: manca

Observacions i pronòstics meteorològics de més de 4000 aeroports (METAR i TAF).

Les estacions disponibles són els punts grocs i vermells al mapa.

Posi el ratolí al punt desitjat per veure el nom de l'estació.

Feu clic per veure les observacions i els pronòstics meteorològics.

Per canviar el mapa: feu clic els botons verds amb una creu de color negre per apropar; al botó verd amb un guió per allunyar la imatge; o en les fletxes verdes per a mapes adjacents.


METAR-TAF: